sensor_id;sensor_type;location;lat;lon;timestamp;P1;durP1;ratioP1;P2;durP2;ratioP2
4001;SDS011;2015;48.670;9.060;2023-04-24T00:02:01;1.70;;;1.60;;
4001;SDS011;2015;48.670;9.060;2023-04-24T00:04:34;2.83;;;2.17;;
4001;SDS011;2015;48.670;9.060;2023-04-24T00:07:06;2.50;;;2.03;;
4001;SDS011;2015;48.670;9.060;2023-04-24T00:09:38;2.00;;;1.90;;
4001;SDS011;2015;48.670;9.060;2023-04-24T00:12:10;2.33;;;2.13;;
4001;SDS011;2015;48.670;9.060;2023-04-24T00:14:42;2.50;;;1.80;;
4001;SDS011;2015;48.670;9.060;2023-04-24T00:17:13;1.90;;;1.80;;
4001;SDS011;2015;48.670;9.060;2023-04-24T00:19:48;2.40;;;2.30;;
4001;SDS011;2015;48.670;9.060;2023-04-24T00:22:22;2.93;;;1.90;;
4001;SDS011;2015;48.670;9.060;2023-04-24T00:24:54;1.47;;;1.37;;
4001;SDS011;2015;48.670;9.060;2023-04-24T00:27:26;3.60;;;3.30;;
4001;SDS011;2015;48.670;9.060;2023-04-24T00:29:57;1.70;;;1.60;;
4001;SDS011;2015;48.670;9.060;2023-04-24T00:32:29;1.73;;;1.63;;
4001;SDS011;2015;48.670;9.060;2023-04-24T00:35:01;2.23;;;2.13;;
4001;SDS011;2015;48.670;9.060;2023-04-24T00:37:33;2.10;;;2.00;;
4001;SDS011;2015;48.670;9.060;2023-04-24T00:40:05;1.80;;;1.70;;
4001;SDS011;2015;48.670;9.060;2023-04-24T00:42:38;3.00;;;1.83;;
4001;SDS011;2015;48.670;9.060;2023-04-24T00:45:11;3.30;;;2.30;;
4001;SDS011;2015;48.670;9.060;2023-04-24T00:47:43;6.17;;;4.57;;
4001;SDS011;2015;48.670;9.060;2023-04-24T00:50:17;2.50;;;1.63;;
4001;SDS011;2015;48.670;9.060;2023-04-24T00:52:50;1.70;;;1.60;;
4001;SDS011;2015;48.670;9.060;2023-04-24T00:55:22;3.30;;;1.70;;
4001;SDS011;2015;48.670;9.060;2023-04-24T00:57:55;3.30;;;2.57;;
4001;SDS011;2015;48.670;9.060;2023-04-24T01:00:27;2.60;;;2.10;;
4001;SDS011;2015;48.670;9.060;2023-04-24T01:02:59;1.83;;;1.73;;
4001;SDS011;2015;48.670;9.060;2023-04-24T01:05:35;1.87;;;1.70;;
4001;SDS011;2015;48.670;9.060;2023-04-24T01:08:07;1.60;;;1.50;;
4001;SDS011;2015;48.670;9.060;2023-04-24T01:10:40;1.58;;;1.30;;
4001;SDS011;2015;48.670;9.060;2023-04-24T01:13:13;1.80;;;1.70;;
4001;SDS011;2015;48.670;9.060;2023-04-24T01:15:45;2.90;;;1.50;;
4001;SDS011;2015;48.670;9.060;2023-04-24T01:18:17;2.00;;;1.53;;
4001;SDS011;2015;48.670;9.060;2023-04-24T01:20:50;1.73;;;1.63;;
4001;SDS011;2015;48.670;9.060;2023-04-24T01:23:24;4.77;;;2.17;;
4001;SDS011;2015;48.670;9.060;2023-04-24T01:25:56;1.70;;;1.60;;
4001;SDS011;2015;48.670;9.060;2023-04-24T01:28:28;2.23;;;2.10;;
4001;SDS011;2015;48.670;9.060;2023-04-24T01:31:00;2.40;;;2.20;;
4001;SDS011;2015;48.670;9.060;2023-04-24T01:33:32;1.93;;;1.83;;
4001;SDS011;2015;48.670;9.060;2023-04-24T01:36:04;2.93;;;2.00;;
4001;SDS011;2015;48.670;9.060;2023-04-24T01:38:36;2.20;;;2.00;;
4001;SDS011;2015;48.670;9.060;2023-04-24T01:41:08;2.83;;;2.63;;
4001;SDS011;2015;48.670;9.060;2023-04-24T01:43:41;2.50;;;1.80;;
4001;SDS011;2015;48.670;9.060;2023-04-24T01:46:13;2.03;;;1.93;;
4001;SDS011;2015;48.670;9.060;2023-04-24T01:48:45;3.40;;;2.00;;
4001;SDS011;2015;48.670;9.060;2023-04-24T01:51:17;2.23;;;2.03;;
4001;SDS011;2015;48.670;9.060;2023-04-24T01:53:49;2.00;;;1.90;;
4001;SDS011;2015;48.670;9.060;2023-04-24T01:56:21;1.80;;;1.70;;
4001;SDS011;2015;48.670;9.060;2023-04-24T01:58:53;2.40;;;2.30;;
4001;SDS011;2015;48.670;9.060;2023-04-24T02:01:25;2.30;;;2.10;;
4001;SDS011;2015;48.670;9.060;2023-04-24T02:03:57;2.33;;;2.23;;
4001;SDS011;2015;48.670;9.060;2023-04-24T02:06:29;1.77;;;1.67;;
4001;SDS011;2015;48.670;9.060;2023-04-24T02:09:02;2.20;;;1.67;;
4001;SDS011;2015;48.670;9.060;2023-04-24T02:11:34;4.33;;;1.93;;
4001;SDS011;2015;48.670;9.060;2023-04-24T02:14:06;2.03;;;1.80;;
4001;SDS011;2015;48.670;9.060;2023-04-24T02:16:38;2.17;;;2.07;;
4001;SDS011;2015;48.670;9.060;2023-04-24T02:19:09;1.70;;;1.60;;
4001;SDS011;2015;48.670;9.060;2023-04-24T02:21:41;2.17;;;2.07;;
4001;SDS011;2015;48.670;9.060;2023-04-24T02:24:13;2.73;;;2.50;;
4001;SDS011;2015;48.670;9.060;2023-04-24T02:26:45;2.70;;;2.50;;
4001;SDS011;2015;48.670;9.060;2023-04-24T02:29:17;3.67;;;2.10;;
4001;SDS011;2015;48.670;9.060;2023-04-24T02:31:49;2.30;;;2.20;;
4001;SDS011;2015;48.670;9.060;2023-04-24T02:34:21;2.40;;;2.30;;
4001;SDS011;2015;48.670;9.060;2023-04-24T02:36:54;2.13;;;1.93;;
4001;SDS011;2015;48.670;9.060;2023-04-24T02:39:26;2.10;;;1.90;;
4001;SDS011;2015;48.670;9.060;2023-04-24T02:41:57;2.80;;;2.70;;
4001;SDS011;2015;48.670;9.060;2023-04-24T02:44:29;2.73;;;2.13;;
4001;SDS011;2015;48.670;9.060;2023-04-24T02:47:01;4.47;;;2.13;;
4001;SDS011;2015;48.670;9.060;2023-04-24T02:49:33;2.33;;;2.03;;
4001;SDS011;2015;48.670;9.060;2023-04-24T02:52:04;4.10;;;3.80;;
4001;SDS011;2015;48.670;9.060;2023-04-24T02:54:36;2.80;;;1.80;;
4001;SDS011;2015;48.670;9.060;2023-04-24T02:57:08;2.47;;;2.20;;
4001;SDS011;2015;48.670;9.060;2023-04-24T02:59:40;4.00;;;2.10;;
4001;SDS011;2015;48.670;9.060;2023-04-24T03:02:12;2.50;;;2.30;;
4001;SDS011;2015;48.670;9.060;2023-04-24T03:04:44;2.40;;;1.87;;
4001;SDS011;2015;48.670;9.060;2023-04-24T03:07:16;2.03;;;1.93;;
4001;SDS011;2015;48.670;9.060;2023-04-24T03:09:47;2.40;;;2.30;;
4001;SDS011;2015;48.670;9.060;2023-04-24T03:12:19;1.90;;;1.80;;
4001;SDS011;2015;48.670;9.060;2023-04-24T03:14:51;2.20;;;2.10;;
4001;SDS011;2015;48.670;9.060;2023-04-24T03:17:23;3.03;;;2.20;;
4001;SDS011;2015;48.670;9.060;2023-04-24T03:19:55;2.10;;;1.80;;
4001;SDS011;2015;48.670;9.060;2023-04-24T03:22:27;8.03;;;2.00;;
4001;SDS011;2015;48.670;9.060;2023-04-24T03:24:58;2.30;;;1.80;;
4001;SDS011;2015;48.670;9.060;2023-04-24T03:27:30;3.70;;;2.20;;
4001;SDS011;2015;48.670;9.060;2023-04-24T03:30:02;1.83;;;1.70;;
4001;SDS011;2015;48.670;9.060;2023-04-24T03:32:35;2.10;;;2.00;;
4001;SDS011;2015;48.670;9.060;2023-04-24T03:35:07;1.93;;;1.83;;
4001;SDS011;2015;48.670;9.060;2023-04-24T03:37:39;2.00;;;1.80;;
4001;SDS011;2015;48.670;9.060;2023-04-24T03:40:11;1.87;;;1.77;;
4001;SDS011;2015;48.670;9.060;2023-04-24T03:42:43;1.93;;;1.60;;
4001;SDS011;2015;48.670;9.060;2023-04-24T03:45:15;2.20;;;2.10;;
4001;SDS011;2015;48.670;9.060;2023-04-24T03:47:47;1.73;;;1.63;;
4001;SDS011;2015;48.670;9.060;2023-04-24T03:50:18;3.57;;;1.87;;
4001;SDS011;2015;48.670;9.060;2023-04-24T03:52:50;3.40;;;1.97;;
4001;SDS011;2015;48.670;9.060;2023-04-24T03:55:22;4.30;;;3.10;;
4001;SDS011;2015;48.670;9.060;2023-04-24T03:57:54;2.50;;;2.40;;
4001;SDS011;2015;48.670;9.060;2023-04-24T04:00:25;2.07;;;1.87;;
4001;SDS011;2015;48.670;9.060;2023-04-24T04:02:57;1.80;;;1.70;;
4001;SDS011;2015;48.670;9.060;2023-04-24T04:05:29;1.57;;;1.47;;
4001;SDS011;2015;48.670;9.060;2023-04-24T04:08:01;2.00;;;1.90;;
4001;SDS011;2015;48.670;9.060;2023-04-24T04:10:33;2.00;;;1.90;;
4001;SDS011;2015;48.670;9.060;2023-04-24T04:13:04;1.70;;;1.60;;
4001;SDS011;2015;48.670;9.060;2023-04-24T04:15:37;1.83;;;1.60;;
4001;SDS011;2015;48.670;9.060;2023-04-24T04:18:09;4.40;;;1.60;;
4001;SDS011;2015;48.670;9.060;2023-04-24T04:20:41;3.43;;;1.90;;
4001;SDS011;2015;48.670;9.060;2023-04-24T04:23:13;2.43;;;1.90;;
4001;SDS011;2015;48.670;9.060;2023-04-24T04:25:44;2.10;;;1.90;;
4001;SDS011;2015;48.670;9.060;2023-04-24T04:28:16;2.20;;;1.63;;
4001;SDS011;2015;48.670;9.060;2023-04-24T04:30:51;1.70;;;1.60;;
4001;SDS011;2015;48.670;9.060;2023-04-24T04:33:25;4.10;;;1.80;;
4001;SDS011;2015;48.670;9.060;2023-04-24T04:35:57;2.33;;;1.87;;
4001;SDS011;2015;48.670;9.060;2023-04-24T04:38:29;2.43;;;1.50;;
4001;SDS011;2015;48.670;9.060;2023-04-24T04:41:01;2.40;;;1.63;;
4001;SDS011;2015;48.670;9.060;2023-04-24T04:43:33;5.30;;;2.73;;
4001;SDS011;2015;48.670;9.060;2023-04-24T04:46:05;2.90;;;2.27;;
4001;SDS011;2015;48.670;9.060;2023-04-24T04:48:39;2.60;;;2.50;;
4001;SDS011;2015;48.670;9.060;2023-04-24T04:51:11;2.70;;;2.60;;
4001;SDS011;2015;48.670;9.060;2023-04-24T04:53:43;2.83;;;2.63;;
4001;SDS011;2015;48.670;9.060;2023-04-24T04:56:16;5.80;;;2.60;;
4001;SDS011;2015;48.670;9.060;2023-04-24T04:58:47;2.80;;;2.60;;
4001;SDS011;2015;48.670;9.060;2023-04-24T05:01:19;4.10;;;2.90;;
4001;SDS011;2015;48.670;9.060;2023-04-24T05:03:51;3.00;;;2.77;;
4001;SDS011;2015;48.670;9.060;2023-04-24T05:06:23;2.83;;;2.63;;
4001;SDS011;2015;48.670;9.060;2023-04-24T05:08:55;2.63;;;2.43;;
4001;SDS011;2015;48.670;9.060;2023-04-24T05:11:28;3.23;;;2.63;;
4001;SDS011;2015;48.670;9.060;2023-04-24T05:14:01;3.43;;;3.23;;
4001;SDS011;2015;48.670;9.060;2023-04-24T05:16:32;2.33;;;2.23;;
4001;SDS011;2015;48.670;9.060;2023-04-24T05:19:05;2.93;;;2.73;;
4001;SDS011;2015;48.670;9.060;2023-04-24T05:21:37;2.90;;;2.70;;
4001;SDS011;2015;48.670;9.060;2023-04-24T05:24:10;3.87;;;3.67;;
4001;SDS011;2015;48.670;9.060;2023-04-24T05:26:42;2.97;;;2.77;;
4001;SDS011;2015;48.670;9.060;2023-04-24T05:29:13;3.00;;;2.67;;
4001;SDS011;2015;48.670;9.060;2023-04-24T05:31:45;3.20;;;2.97;;
4001;SDS011;2015;48.670;9.060;2023-04-24T05:34:17;2.90;;;2.80;;
4001;SDS011;2015;48.670;9.060;2023-04-24T05:36:49;3.20;;;2.90;;
4001;SDS011;2015;48.670;9.060;2023-04-24T05:39:21;3.00;;;2.80;;
4001;SDS011;2015;48.670;9.060;2023-04-24T05:41:53;2.87;;;2.77;;
4001;SDS011;2015;48.670;9.060;2023-04-24T05:44:29;3.77;;;3.57;;
4001;SDS011;2015;48.670;9.060;2023-04-24T05:47:01;3.80;;;3.50;;
4001;SDS011;2015;48.670;9.060;2023-04-24T05:49:33;3.13;;;2.93;;
4001;SDS011;2015;48.670;9.060;2023-04-24T05:52:05;3.10;;;2.90;;
4001;SDS011;2015;48.670;9.060;2023-04-24T05:54:39;3.13;;;2.93;;
4001;SDS011;2015;48.670;9.060;2023-04-24T05:57:11;3.05;;;2.85;;
4001;SDS011;2015;48.670;9.060;2023-04-24T05:59:43;3.53;;;3.23;;
4001;SDS011;2015;48.670;9.060;2023-04-24T06:02:15;3.50;;;3.30;;
4001;SDS011;2015;48.670;9.060;2023-04-24T06:04:47;3.87;;;3.57;;
4001;SDS011;2015;48.670;9.060;2023-04-24T06:07:19;5.03;;;2.73;;
4001;SDS011;2015;48.670;9.060;2023-04-24T06:09:52;3.97;;;3.67;;
4001;SDS011;2015;48.670;9.060;2023-04-24T06:12:24;3.53;;;3.23;;
4001;SDS011;2015;48.670;9.060;2023-04-24T06:14:57;3.83;;;3.53;;
4001;SDS011;2015;48.670;9.060;2023-04-24T06:17:28;3.40;;;3.10;;
4001;SDS011;2015;48.670;9.060;2023-04-24T06:20:01;4.13;;;3.60;;
4001;SDS011;2015;48.670;9.060;2023-04-24T06:22:36;3.70;;;3.47;;
4001;SDS011;2015;48.670;9.060;2023-04-24T06:25:08;4.37;;;3.97;;
4001;SDS011;2015;48.670;9.060;2023-04-24T06:27:40;5.03;;;4.50;;
4001;SDS011;2015;48.670;9.060;2023-04-24T06:30:11;4.20;;;3.90;;
4001;SDS011;2015;48.670;9.060;2023-04-24T06:32:43;3.53;;;3.23;;
4001;SDS011;2015;48.670;9.060;2023-04-24T06:35:15;3.97;;;3.67;;
4001;SDS011;2015;48.670;9.060;2023-04-24T06:37:47;3.00;;;2.80;;
4001;SDS011;2015;48.670;9.060;2023-04-24T06:40:19;3.70;;;3.50;;
4001;SDS011;2015;48.670;9.060;2023-04-24T06:42:51;2.80;;;2.60;;
4001;SDS011;2015;48.670;9.060;2023-04-24T06:45:22;3.20;;;3.00;;
4001;SDS011;2015;48.670;9.060;2023-04-24T06:47:54;3.30;;;3.10;;
4001;SDS011;2015;48.670;9.060;2023-04-24T06:50:26;4.03;;;3.83;;
4001;SDS011;2015;48.670;9.060;2023-04-24T06:52:58;4.20;;;2.80;;
4001;SDS011;2015;48.670;9.060;2023-04-24T06:55:30;2.60;;;2.40;;
4001;SDS011;2015;48.670;9.060;2023-04-24T06:58:02;3.40;;;3.20;;
4001;SDS011;2015;48.670;9.060;2023-04-24T07:00:34;2.40;;;2.30;;
4001;SDS011;2015;48.670;9.060;2023-04-24T07:03:05;3.40;;;3.20;;
4001;SDS011;2015;48.670;9.060;2023-04-24T07:05:37;3.73;;;3.53;;
4001;SDS011;2015;48.670;9.060;2023-04-24T07:08:09;3.60;;;3.37;;
4001;SDS011;2015;48.670;9.060;2023-04-24T07:10:42;4.10;;;3.80;;
4001;SDS011;2015;48.670;9.060;2023-04-24T07:13:15;3.00;;;2.90;;
4001;SDS011;2015;48.670;9.060;2023-04-24T07:15:47;3.20;;;3.00;;
4001;SDS011;2015;48.670;9.060;2023-04-24T07:18:22;2.60;;;2.40;;
4001;SDS011;2015;48.670;9.060;2023-04-24T07:20:54;2.87;;;2.67;;
4001;SDS011;2015;48.670;9.060;2023-04-24T07:23:26;2.40;;;2.30;;
4001;SDS011;2015;48.670;9.060;2023-04-24T07:25:57;2.20;;;2.10;;
4001;SDS011;2015;48.670;9.060;2023-04-24T07:28:29;2.23;;;2.03;;
4001;SDS011;2015;48.670;9.060;2023-04-24T07:31:02;2.00;;;1.80;;
4001;SDS011;2015;48.670;9.060;2023-04-24T07:33:34;2.20;;;2.10;;
4001;SDS011;2015;48.670;9.060;2023-04-24T07:36:07;2.37;;;2.07;;
4001;SDS011;2015;48.670;9.060;2023-04-24T07:38:39;3.03;;;1.90;;
4001;SDS011;2015;48.670;9.060;2023-04-24T07:41:12;2.60;;;2.50;;
4001;SDS011;2015;48.670;9.060;2023-04-24T07:43:44;2.50;;;2.40;;
4001;SDS011;2015;48.670;9.060;2023-04-24T07:46:16;2.70;;;2.50;;
4001;SDS011;2015;48.670;9.060;2023-04-24T07:48:48;3.27;;;3.07;;
4001;SDS011;2015;48.670;9.060;2023-04-24T07:51:35;2.70;;;2.17;;
4001;SDS011;2015;48.670;9.060;2023-04-24T07:54:09;2.60;;;2.50;;
4001;SDS011;2015;48.670;9.060;2023-04-24T07:56:41;2.63;;;2.50;;
4001;SDS011;2015;48.670;9.060;2023-04-24T07:59:14;8.10;;;3.07;;
4001;SDS011;2015;48.670;9.060;2023-04-24T08:01:46;2.87;;;2.67;;
4001;SDS011;2015;48.670;9.060;2023-04-24T08:04:18;2.37;;;2.17;;
4001;SDS011;2015;48.670;9.060;2023-04-24T08:06:50;2.50;;;2.30;;
4001;SDS011;2015;48.670;9.060;2023-04-24T08:09:22;3.17;;;2.70;;
4001;SDS011;2015;48.670;9.060;2023-04-24T08:11:56;2.53;;;2.40;;
4001;SDS011;2015;48.670;9.060;2023-04-24T08:14:28;2.63;;;2.43;;
4001;SDS011;2015;48.670;9.060;2023-04-24T08:17:00;2.50;;;2.40;;
4001;SDS011;2015;48.670;9.060;2023-04-24T08:19:32;2.57;;;2.47;;
4001;SDS011;2015;48.670;9.060;2023-04-24T08:22:04;4.87;;;2.57;;
4001;SDS011;2015;48.670;9.060;2023-04-24T08:24:36;2.47;;;2.28;;
4001;SDS011;2015;48.670;9.060;2023-04-24T08:27:09;3.27;;;3.07;;
4001;SDS011;2015;48.670;9.060;2023-04-24T08:29:41;3.40;;;3.20;;
4001;SDS011;2015;48.670;9.060;2023-04-24T08:32:13;2.80;;;2.70;;
4001;SDS011;2015;48.670;9.060;2023-04-24T08:34:45;2.97;;;2.67;;
4001;SDS011;2015;48.670;9.060;2023-04-24T08:37:19;2.47;;;2.37;;
4001;SDS011;2015;48.670;9.060;2023-04-24T08:39:51;2.67;;;2.57;;
4001;SDS011;2015;48.670;9.060;2023-04-24T08:42:23;2.93;;;2.73;;
4001;SDS011;2015;48.670;9.060;2023-04-24T08:44:57;2.17;;;2.03;;
4001;SDS011;2015;48.670;9.060;2023-04-24T08:47:29;2.73;;;2.53;;
4001;SDS011;2015;48.670;9.060;2023-04-24T08:50:04;2.50;;;2.30;;
4001;SDS011;2015;48.670;9.060;2023-04-24T08:52:38;4.10;;;2.50;;
4001;SDS011;2015;48.670;9.060;2023-04-24T08:55:10;2.70;;;2.50;;
4001;SDS011;2015;48.670;9.060;2023-04-24T08:57:42;2.50;;;2.30;;
4001;SDS011;2015;48.670;9.060;2023-04-24T09:00:16;2.60;;;2.50;;
4001;SDS011;2015;48.670;9.060;2023-04-24T09:02:49;2.67;;;2.47;;
4001;SDS011;2015;48.670;9.060;2023-04-24T09:05:22;3.30;;;2.63;;
4001;SDS011;2015;48.670;9.060;2023-04-24T09:07:58;4.17;;;2.40;;
4001;SDS011;2015;48.670;9.060;2023-04-24T09:10:33;2.60;;;2.40;;
4001;SDS011;2015;48.670;9.060;2023-04-24T09:13:05;2.33;;;2.23;;
4001;SDS011;2015;48.670;9.060;2023-04-24T09:15:40;4.07;;;3.10;;
4001;SDS011;2015;48.670;9.060;2023-04-24T09:18:12;3.30;;;2.50;;
4001;SDS011;2015;48.670;9.060;2023-04-24T09:21:01;2.80;;;2.63;;
4001;SDS011;2015;48.670;9.060;2023-04-24T09:23:35;2.57;;;2.37;;
4001;SDS011;2015;48.670;9.060;2023-04-24T09:26:09;2.20;;;2.00;;
4001;SDS011;2015;48.670;9.060;2023-04-24T09:28:41;2.20;;;2.10;;
4001;SDS011;2015;48.670;9.060;2023-04-24T09:31:14;2.07;;;1.70;;
4001;SDS011;2015;48.670;9.060;2023-04-24T09:36:39;2.10;;;2.00;;
4001;SDS011;2015;48.670;9.060;2023-04-24T09:39:13;1.67;;;1.57;;
4001;SDS011;2015;48.670;9.060;2023-04-24T09:41:50;2.83;;;2.03;;
4001;SDS011;2015;48.670;9.060;2023-04-24T09:44:29;3.60;;;1.80;;
4001;SDS011;2015;48.670;9.060;2023-04-24T09:47:00;4.10;;;1.38;;
4001;SDS011;2015;48.670;9.060;2023-04-24T09:49:32;1.80;;;1.70;;
4001;SDS011;2015;48.670;9.060;2023-04-24T09:52:06;1.53;;;1.43;;
4001;SDS011;2015;48.670;9.060;2023-04-24T09:54:42;2.40;;;1.70;;
4001;SDS011;2015;48.670;9.060;2023-04-24T09:57:25;2.30;;;2.10;;
4001;SDS011;2015;48.670;9.060;2023-04-24T09:59:57;1.90;;;1.70;;
4001;SDS011;2015;48.670;9.060;2023-04-24T10:02:28;1.83;;;1.73;;
4001;SDS011;2015;48.670;9.060;2023-04-24T10:05:03;2.63;;;2.53;;
4001;SDS011;2015;48.670;9.060;2023-04-24T10:07:37;2.17;;;2.07;;
4001;SDS011;2015;48.670;9.060;2023-04-24T10:10:09;1.93;;;1.40;;
4001;SDS011;2015;48.670;9.060;2023-04-24T10:12:41;1.47;;;1.37;;
4001;SDS011;2015;48.670;9.060;2023-04-24T10:15:15;3.03;;;1.40;;
4001;SDS011;2015;48.670;9.060;2023-04-24T10:17:51;1.40;;;1.30;;
4001;SDS011;2015;48.670;9.060;2023-04-24T10:20:25;3.17;;;1.40;;
4001;SDS011;2015;48.670;9.060;2023-04-24T10:22:58;1.73;;;1.63;;
4001;SDS011;2015;48.670;9.060;2023-04-24T10:25:32;2.53;;;1.30;;
4001;SDS011;2015;48.670;9.060;2023-04-24T10:28:06;2.40;;;1.83;;
4001;SDS011;2015;48.670;9.060;2023-04-24T10:30:41;1.73;;;1.63;;
4001;SDS011;2015;48.670;9.060;2023-04-24T10:33:14;2.07;;;1.67;;
4001;SDS011;2015;48.670;9.060;2023-04-24T10:35:47;1.80;;;1.70;;
4001;SDS011;2015;48.670;9.060;2023-04-24T10:38:22;1.63;;;1.53;;
4001;SDS011;2015;48.670;9.060;2023-04-24T10:41:09;1.97;;;1.87;;
4001;SDS011;2015;48.670;9.060;2023-04-24T10:43:47;2.10;;;1.90;;
4001;SDS011;2015;48.670;9.060;2023-04-24T10:46:22;3.43;;;1.57;;
4001;SDS011;2015;48.670;9.060;2023-04-24T10:48:54;2.10;;;1.90;;
4001;SDS011;2015;48.670;9.060;2023-04-24T10:51:43;2.20;;;2.07;;
4001;SDS011;2015;48.670;9.060;2023-04-24T10:54:21;1.87;;;1.77;;
4001;SDS011;2015;48.670;9.060;2023-04-24T11:02:47;5.43;;;1.70;;
4001;SDS011;2015;48.670;9.060;2023-04-24T11:05:21;1.90;;;1.80;;
4001;SDS011;2015;48.670;9.060;2023-04-24T11:10:46;2.37;;;2.17;;
4001;SDS011;2015;48.670;9.060;2023-04-24T11:19:09;2.10;;;2.00;;
4001;SDS011;2015;48.670;9.060;2023-04-24T11:25:08;2.63;;;2.53;;
4001;SDS011;2015;48.670;9.060;2023-04-24T11:27:39;2.23;;;2.13;;
4001;SDS011;2015;48.670;9.060;2023-04-24T11:30:11;2.30;;;2.20;;
4001;SDS011;2015;48.670;9.060;2023-04-24T11:32:43;1.63;;;1.53;;
4001;SDS011;2015;48.670;9.060;2023-04-24T11:35:22;1.80;;;1.70;;
4001;SDS011;2015;48.670;9.060;2023-04-24T11:37:59;2.80;;;2.00;;
4001;SDS011;2015;48.670;9.060;2023-04-24T11:40:53;1.80;;;1.70;;
4001;SDS011;2015;48.670;9.060;2023-04-24T11:43:26;2.50;;;2.30;;
4001;SDS011;2015;48.670;9.060;2023-04-24T11:46:03;2.23;;;1.70;;
4001;SDS011;2015;48.670;9.060;2023-04-24T11:48:37;2.50;;;2.30;;
4001;SDS011;2015;48.670;9.060;2023-04-24T11:51:12;2.80;;;1.90;;
4001;SDS011;2015;48.670;9.060;2023-04-24T11:53:44;2.07;;;1.97;;
4001;SDS011;2015;48.670;9.060;2023-04-24T11:56:23;2.10;;;2.00;;
4001;SDS011;2015;48.670;9.060;2023-04-24T11:58:55;2.27;;;2.17;;
4001;SDS011;2015;48.670;9.060;2023-04-24T12:01:27;2.10;;;1.90;;
4001;SDS011;2015;48.670;9.060;2023-04-24T12:03:59;1.70;;;1.60;;
4001;SDS011;2015;48.670;9.060;2023-04-24T12:06:32;2.60;;;2.40;;
4001;SDS011;2015;48.670;9.060;2023-04-24T12:09:04;3.40;;;3.17;;
4001;SDS011;2015;48.670;9.060;2023-04-24T12:11:55;2.60;;;2.37;;
4001;SDS011;2015;48.670;9.060;2023-04-24T12:14:30;2.20;;;2.10;;
4001;SDS011;2015;48.670;9.060;2023-04-24T12:17:02;3.13;;;2.87;;
4001;SDS011;2015;48.670;9.060;2023-04-24T12:19:34;2.00;;;1.90;;
4001;SDS011;2015;48.670;9.060;2023-04-24T12:22:06;2.37;;;2.27;;
4001;SDS011;2015;48.670;9.060;2023-04-24T12:27:36;2.10;;;2.00;;
4001;SDS011;2015;48.670;9.060;2023-04-24T12:30:15;2.77;;;2.57;;
4001;SDS011;2015;48.670;9.060;2023-04-24T12:32:48;2.27;;;2.13;;
4001;SDS011;2015;48.670;9.060;2023-04-24T12:35:21;3.10;;;2.80;;
4001;SDS011;2015;48.670;9.060;2023-04-24T12:37:54;2.20;;;2.10;;
4001;SDS011;2015;48.670;9.060;2023-04-24T12:40:26;2.67;;;2.47;;
4001;SDS011;2015;48.670;9.060;2023-04-24T12:43:00;2.27;;;2.10;;
4001;SDS011;2015;48.670;9.060;2023-04-24T12:45:32;2.67;;;1.90;;
4001;SDS011;2015;48.670;9.060;2023-04-24T12:48:03;2.00;;;1.90;;
4001;SDS011;2015;48.670;9.060;2023-04-24T12:50:35;2.90;;;2.70;;
4001;SDS011;2015;48.670;9.060;2023-04-24T12:53:07;2.37;;;2.27;;
4001;SDS011;2015;48.670;9.060;2023-04-24T12:55:40;2.20;;;2.10;;
4001;SDS011;2015;48.670;9.060;2023-04-24T12:58:12;2.47;;;2.37;;
4001;SDS011;2015;48.670;9.060;2023-04-24T13:00:44;2.37;;;2.17;;
4001;SDS011;2015;48.670;9.060;2023-04-24T13:03:17;4.27;;;2.73;;
4001;SDS011;2015;48.670;9.060;2023-04-24T13:05:49;2.40;;;2.30;;
4001;SDS011;2015;48.670;9.060;2023-04-24T13:08:21;2.80;;;2.70;;
4001;SDS011;2015;48.670;9.060;2023-04-24T13:10:53;2.20;;;2.10;;
4001;SDS011;2015;48.670;9.060;2023-04-24T13:13:25;2.77;;;2.30;;
4001;SDS011;2015;48.670;9.060;2023-04-24T13:15:56;4.03;;;2.63;;
4001;SDS011;2015;48.670;9.060;2023-04-24T13:18:28;3.00;;;2.90;;
4001;SDS011;2015;48.670;9.060;2023-04-24T13:21:00;2.60;;;2.40;;
4001;SDS011;2015;48.670;9.060;2023-04-24T13:23:32;3.17;;;2.97;;
4001;SDS011;2015;48.670;9.060;2023-04-24T13:26:04;2.40;;;2.30;;
4001;SDS011;2015;48.670;9.060;2023-04-24T13:28:36;2.23;;;2.13;;
4001;SDS011;2015;48.670;9.060;2023-04-24T13:31:09;3.50;;;2.37;;
4001;SDS011;2015;48.670;9.060;2023-04-24T13:33:41;6.60;;;3.13;;
4001;SDS011;2015;48.670;9.060;2023-04-24T13:36:13;2.60;;;2.40;;
4001;SDS011;2015;48.670;9.060;2023-04-24T13:38:45;4.27;;;3.00;;
4001;SDS011;2015;48.670;9.060;2023-04-24T13:41:17;3.70;;;3.40;;
4001;SDS011;2015;48.670;9.060;2023-04-24T13:43:48;4.90;;;3.70;;
4001;SDS011;2015;48.670;9.060;2023-04-24T13:46:20;2.93;;;2.63;;
4001;SDS011;2015;48.670;9.060;2023-04-24T13:48:52;3.20;;;3.00;;
4001;SDS011;2015;48.670;9.060;2023-04-24T13:51:25;3.23;;;2.93;;
4001;SDS011;2015;48.670;9.060;2023-04-24T13:54:00;2.60;;;2.40;;
4001;SDS011;2015;48.670;9.060;2023-04-24T13:56:32;3.23;;;3.03;;
4001;SDS011;2015;48.670;9.060;2023-04-24T13:59:04;3.17;;;2.87;;
4001;SDS011;2015;48.670;9.060;2023-04-24T14:01:36;3.63;;;3.10;;
4001;SDS011;2015;48.670;9.060;2023-04-24T14:04:08;3.63;;;2.33;;
4001;SDS011;2015;48.670;9.060;2023-04-24T14:06:40;3.47;;;3.17;;
4001;SDS011;2015;48.670;9.060;2023-04-24T14:09:12;3.87;;;3.67;;
4001;SDS011;2015;48.670;9.060;2023-04-24T14:11:44;3.27;;;3.07;;
4001;SDS011;2015;48.670;9.060;2023-04-24T14:14:16;3.33;;;3.13;;
4001;SDS011;2015;48.670;9.060;2023-04-24T14:16:47;3.40;;;3.10;;
4001;SDS011;2015;48.670;9.060;2023-04-24T14:19:19;3.27;;;3.07;;
4001;SDS011;2015;48.670;9.060;2023-04-24T14:21:51;3.43;;;3.17;;
4001;SDS011;2015;48.670;9.060;2023-04-24T14:24:23;3.77;;;3.57;;
4001;SDS011;2015;48.670;9.060;2023-04-24T14:26:55;3.50;;;3.30;;
4001;SDS011;2015;48.670;9.060;2023-04-24T14:29:27;3.70;;;3.40;;
4001;SDS011;2015;48.670;9.060;2023-04-24T14:31:59;4.40;;;4.10;;
4001;SDS011;2015;48.670;9.060;2023-04-24T14:34:31;3.30;;;3.10;;
4001;SDS011;2015;48.670;9.060;2023-04-24T14:37:03;3.23;;;3.00;;
4001;SDS011;2015;48.670;9.060;2023-04-24T14:39:35;3.67;;;3.47;;
4001;SDS011;2015;48.670;9.060;2023-04-24T14:42:07;4.43;;;3.50;;
4001;SDS011;2015;48.670;9.060;2023-04-24T14:44:39;3.40;;;3.20;;
4001;SDS011;2015;48.670;9.060;2023-04-24T14:47:10;4.80;;;3.50;;
4001;SDS011;2015;48.670;9.060;2023-04-24T14:49:43;5.40;;;3.33;;
4001;SDS011;2015;48.670;9.060;2023-04-24T14:52:18;3.50;;;3.20;;
4001;SDS011;2015;48.670;9.060;2023-04-24T14:54:50;4.00;;;2.73;;
4001;SDS011;2015;48.670;9.060;2023-04-24T14:57:22;3.17;;;2.60;;
4001;SDS011;2015;48.670;9.060;2023-04-24T14:59:54;3.40;;;3.10;;
4001;SDS011;2015;48.670;9.060;2023-04-24T15:02:26;2.30;;;2.10;;
4001;SDS011;2015;48.670;9.060;2023-04-24T15:04:58;3.30;;;3.10;;
4001;SDS011;2015;48.670;9.060;2023-04-24T15:07:30;2.53;;;2.43;;
4001;SDS011;2015;48.670;9.060;2023-04-24T15:10:03;3.00;;;2.80;;
4001;SDS011;2015;48.670;9.060;2023-04-24T15:12:35;3.13;;;2.93;;
4001;SDS011;2015;48.670;9.060;2023-04-24T15:15:07;2.70;;;2.50;;
4001;SDS011;2015;48.670;9.060;2023-04-24T15:17:39;3.70;;;2.80;;
4001;SDS011;2015;48.670;9.060;2023-04-24T15:20:11;3.10;;;2.90;;
4001;SDS011;2015;48.670;9.060;2023-04-24T15:22:43;3.20;;;3.00;;
4001;SDS011;2015;48.670;9.060;2023-04-24T15:25:15;3.30;;;3.00;;
4001;SDS011;2015;48.670;9.060;2023-04-24T15:27:47;3.00;;;2.80;;
4001;SDS011;2015;48.670;9.060;2023-04-24T15:30:18;2.80;;;2.50;;
4001;SDS011;2015;48.670;9.060;2023-04-24T15:32:50;3.73;;;3.43;;
4001;SDS011;2015;48.670;9.060;2023-04-24T15:35:22;2.90;;;2.70;;
4001;SDS011;2015;48.670;9.060;2023-04-24T15:37:54;2.87;;;2.77;;
4001;SDS011;2015;48.670;9.060;2023-04-24T15:40:26;4.03;;;2.87;;
4001;SDS011;2015;48.670;9.060;2023-04-24T15:42:58;2.83;;;2.63;;
4001;SDS011;2015;48.670;9.060;2023-04-24T15:45:29;3.07;;;2.87;;
4001;SDS011;2015;48.670;9.060;2023-04-24T15:48:01;3.03;;;2.83;;
4001;SDS011;2015;48.670;9.060;2023-04-24T15:50:33;3.20;;;3.00;;
4001;SDS011;2015;48.670;9.060;2023-04-24T15:53:05;3.23;;;3.03;;
4001;SDS011;2015;48.670;9.060;2023-04-24T15:55:37;3.10;;;2.90;;
4001;SDS011;2015;48.670;9.060;2023-04-24T15:58:09;2.70;;;2.58;;
4001;SDS011;2015;48.670;9.060;2023-04-24T16:00:42;4.90;;;2.87;;
4001;SDS011;2015;48.670;9.060;2023-04-24T16:03:14;3.33;;;3.13;;
4001;SDS011;2015;48.670;9.060;2023-04-24T16:05:46;2.90;;;2.70;;
4001;SDS011;2015;48.670;9.060;2023-04-24T16:08:18;2.60;;;2.40;;
4001;SDS011;2015;48.670;9.060;2023-04-24T16:10:51;3.90;;;2.70;;
4001;SDS011;2015;48.670;9.060;2023-04-24T16:13:22;3.00;;;2.80;;